Time;durP1;ratioP1;P1;durP2;ratioP2;P2;SDS_P1;SDS_P2;PMS_P1;PMS_P2;Temp;Humidity;BMP_temperature;BMP_pressure;BME280_temperature;BME280_humidity;BME280_pressure;Samples;Min_cycle;Max_cycle;Signal;HPM_P1;HPM_P2
2021/01/12 00:00:27;;;;;;;48.50;34.53;;;;;;;;;;2090209;28;20188;-62
2021/01/12 00:01:27;;;;;;;49.90;32.97;;;;;;;;;;2084781;28;20168;-62
2021/01/12 00:02:27;;;;;;;49.90;35.27;;;;;;;;;;2098919;28;20175;-58
2021/01/12 00:03:28;;;;;;;44.77;31.60;;;;;;;;;;2092523;28;20179;-58
2021/01/12 00:04:28;;;;;;;48.70;33.43;;;;;;;;;;2089874;28;20180;-61
2021/01/12 00:05:28;;;;;;;50.60;33.50;;;;;;;;;;2084377;28;20210;-60
2021/01/12 00:06:29;;;;;;;48.20;33.00;;;;;;;;;;2098393;28;20207;-62
2021/01/12 00:07:29;;;;;;;58.37;36.30;;;;;;;;;;2098221;28;20254;-61
2021/01/12 00:08:29;;;;;;;43.47;28.50;;;;;;;;;;2097275;28;20174;-62
2021/01/12 00:09:30;;;;;;;44.00;28.33;;;;;;;;;;2096778;28;20226;-59
2021/01/12 00:10:31;;;;;;;40.60;27.47;;;;;;;;;;2091760;28;20672;-62
2021/01/12 00:11:31;;;;;;;50.83;33.27;;;;;;;;;;2096258;28;20340;-59
2021/01/12 00:12:31;;;;;;;46.87;33.43;;;;;;;;;;2089805;28;22029;-59
2021/01/12 00:13:32;;;;;;;53.77;36.17;;;;;;;;;;2082374;28;20190;-61
2021/01/12 00:14:32;;;;;;;52.00;35.93;;;;;;;;;;2087657;28;20171;-61
2021/01/12 00:15:33;;;;;;;33.40;22.00;;;;;;;;;;2074694;28;20264;-60
2021/01/12 00:16:33;;;;;;;53.37;35.97;;;;;;;;;;2080089;28;20659;-62
2021/01/12 00:17:34;;;;;;;47.90;34.90;;;;;;;;;;2080260;28;20181;-61
2021/01/12 00:18:34;;;;;;;48.93;32.27;;;;;;;;;;2088068;28;20179;-60
2021/01/12 00:19:35;;;;;;;51.33;31.53;;;;;;;;;;2098173;28;20191;-60
2021/01/12 00:20:36;;;;;;;39.67;25.73;;;;;;;;;;2082371;28;20224;-61
2021/01/12 00:21:36;;;;;;;46.57;29.83;;;;;;;;;;2089369;28;20180;-59
2021/01/12 00:22:37;;;;;;;48.53;32.83;;;;;;;;;;2095126;28;20673;-61
2021/01/12 00:23:37;;;;;;;29.83;20.07;;;;;;;;;;2089453;28;20191;-59
2021/01/12 00:24:37;;;;;;;43.67;29.23;;;;;;;;;;2082118;28;20267;-61
2021/01/12 00:25:37;;;;;;;40.67;27.50;;;;;;;;;;2098312;28;20175;-63
2021/01/12 00:26:38;;;;;;;35.43;24.63;;;;;;;;;;2080582;28;20176;-59
2021/01/12 00:27:38;;;;;;;47.73;32.30;;;;;;;;;;2072857;28;20212;-61
2021/01/12 00:28:38;;;;;;;46.97;31.60;;;;;;;;;;2089538;28;20171;-61
2021/01/12 00:29:39;;;;;;;36.73;22.50;;;;;;;;;;2089471;28;20608;-62
2021/01/12 00:30:39;;;;;;;52.63;34.60;;;;;;;;;;2081376;28;20172;-59
2021/01/12 00:31:40;;;;;;;47.43;33.60;;;;;;;;;;2090096;28;20730;-58
2021/01/12 00:32:41;;;;;;;48.37;33.27;;;;;;;;;;2085905;28;20383;-62
2021/01/12 00:33:41;;;;;;;45.57;31.30;;;;;;;;;;2082020;28;20184;-60
2021/01/12 00:34:41;;;;;;;52.93;34.53;;;;;;;;;;2084366;28;20202;-61
2021/01/12 00:35:42;;;;;;;50.33;32.97;;;;;;;;;;2090098;28;20171;-62
2021/01/12 00:36:52;;;;;;;33.27;22.03;;;;;;;;;;2095282;28;21160;-62
2021/01/12 00:37:52;;;;;;;49.83;32.63;;;;;;;;;;2097899;28;20178;-61
2021/01/12 00:38:52;;;;;;;44.30;30.93;;;;;;;;;;2089626;28;20664;-61
2021/01/12 00:40:11;;;;;;;47.87;32.57;;;;;;;;;;2088162;28;20240;-62
2021/01/12 00:41:11;;;;;;;40.37;24.40;;;;;;;;;;2096963;28;20193;-59
2021/01/12 00:42:12;;;;;;;44.10;30.97;;;;;;;;;;2089056;28;20160;-61
2021/01/12 00:43:12;;;;;;;38.73;25.70;;;;;;;;;;2085782;28;20672;-59
2021/01/12 00:44:12;;;;;;;25.77;17.97;;;;;;;;;;2085124;28;20199;-62
2021/01/12 00:45:13;;;;;;;41.40;28.60;;;;;;;;;;2086140;28;20217;-62
2021/01/12 00:46:13;;;;;;;42.70;28.70;;;;;;;;;;2088479;28;20278;-60
2021/01/12 00:47:14;;;;;;;39.77;27.13;;;;;;;;;;2081721;28;20680;-62
2021/01/12 00:48:14;;;;;;;41.63;27.73;;;;;;;;;;2078261;28;20177;-62
2021/01/12 00:49:15;;;;;;;40.40;26.77;;;;;;;;;;2081590;28;20227;-59
2021/01/12 00:50:15;;;;;;;44.90;31.10;;;;;;;;;;2089352;28;20176;-61
2021/01/12 00:51:16;;;;;;;40.17;27.73;;;;;;;;;;2093751;28;20171;-62
2021/01/12 00:52:16;;;;;;;48.27;32.57;;;;;;;;;;2083164;28;20716;-62
2021/01/12 00:53:16;;;;;;;38.57;29.00;;;;;;;;;;2086482;28;20818;-61
2021/01/12 00:54:19;;;;;;;45.47;32.23;;;;;;;;;;2094305;28;20686;-58
2021/01/12 00:55:19;;;;;;;29.73;22.57;;;;;;;;;;2089383;28;20179;-59
2021/01/12 00:56:19;;;;;;;50.97;31.20;;;;;;;;;;2081727;28;20168;-61
2021/01/12 00:57:20;;;;;;;47.50;29.60;;;;;;;;;;2080804;28;20738;-61
2021/01/12 00:58:20;;;;;;;46.33;31.30;;;;;;;;;;2089738;28;20392;-61
2021/01/12 01:00:24;;;;;;;47.40;31.83;;;;;;;;;;2085424;28;20255;-65
2021/01/12 01:01:24;;;;;;;44.27;28.30;;;;;;;;;;2081185;28;20176;-60
2021/01/12 01:02:24;;;;;;;47.47;32.37;;;;;;;;;;2076140;28;20595;-64
2021/01/12 01:03:25;;;;;;;44.80;31.07;;;;;;;;;;2088874;28;20180;-63
2021/01/12 01:04:26;;;;;;;42.93;30.40;;;;;;;;;;2079619;28;20180;-62
2021/01/12 01:05:26;;;;;;;40.07;26.43;;;;;;;;;;2088452;28;20176;-64
2021/01/12 01:06:26;;;;;;;42.57;28.73;;;;;;;;;;2086043;28;20212;-63
2021/01/12 01:07:27;;;;;;;41.13;28.83;;;;;;;;;;2089256;28;20180;-55
2021/01/12 01:08:28;;;;;;;35.07;23.37;;;;;;;;;;2090401;28;20225;-64
2021/01/12 01:09:28;;;;;;;41.10;26.53;;;;;;;;;;2094856;28;20176;-65
2021/01/12 01:10:28;;;;;;;28.27;18.20;;;;;;;;;;2081190;28;20204;-65
2021/01/12 01:11:28;;;;;;;39.47;26.83;;;;;;;;;;2074466;28;20170;-66
2021/01/12 01:12:29;;;;;;;41.83;29.83;;;;;;;;;;2087215;28;20187;-62
2021/01/12 01:13:29;;;;;;;40.30;27.67;;;;;;;;;;2079931;28;20211;-65
2021/01/12 01:14:29;;;;;;;38.20;26.53;;;;;;;;;;2077724;28;20173;-63
2021/01/12 01:15:30;;;;;;;37.53;26.00;;;;;;;;;;2090807;28;20180;-65
2021/01/12 01:16:31;;;;;;;42.20;25.87;;;;;;;;;;2082406;28;20593;-65
2021/01/12 01:17:33;;;;;;;42.87;28.77;;;;;;;;;;2081045;28;20243;-66
2021/01/12 01:18:34;;;;;;;44.07;28.83;;;;;;;;;;2082572;28;20172;-61
2021/01/12 01:19:34;;;;;;;36.47;24.40;;;;;;;;;;2081397;28;20231;-64
2021/01/12 01:20:34;;;;;;;33.03;22.47;;;;;;;;;;2091305;28;20191;-60
2021/01/12 01:21:35;;;;;;;35.17;25.07;;;;;;;;;;2090825;28;20544;-65
2021/01/12 01:22:35;;;;;;;37.00;25.00;;;;;;;;;;2090384;28;20175;-65
2021/01/12 01:23:35;;;;;;;23.33;16.87;;;;;;;;;;2091454;28;20255;-59
2021/01/12 01:24:36;;;;;;;21.00;15.67;;;;;;;;;;2086060;28;20214;-67
2021/01/12 01:25:36;;;;;;;17.37;12.63;;;;;;;;;;2091403;28;20259;-62
2021/01/12 01:26:36;;;;;;;35.37;24.43;;;;;;;;;;2086417;28;20208;-59
2021/01/12 01:27:36;;;;;;;35.67;25.17;;;;;;;;;;2082154;28;20554;-63
2021/01/12 01:28:37;;;;;;;34.97;25.07;;;;;;;;;;2082002;28;20195;-64
2021/01/12 01:29:37;;;;;;;38.23;26.90;;;;;;;;;;2091087;28;20890;-61
2021/01/12 01:30:37;;;;;;;33.43;22.20;;;;;;;;;;2090492;28;20221;-62
2021/01/12 01:31:38;;;;;;;35.90;25.23;;;;;;;;;;2081453;28;20695;-66
2021/01/12 01:32:38;;;;;;;33.87;25.00;;;;;;;;;;2078036;28;20203;-62
2021/01/12 01:33:38;;;;;;;36.73;26.90;;;;;;;;;;2083304;28;20184;-66
2021/01/12 01:34:40;;;;;;;42.93;28.00;;;;;;;;;;2073900;28;20672;-62
2021/01/12 01:35:44;;;;;;;30.30;20.90;;;;;;;;;;2083227;28;20168;-64
2021/01/12 01:36:44;;;;;;;36.77;26.17;;;;;;;;;;2080079;28;20176;-65
2021/01/12 01:37:44;;;;;;;28.40;19.93;;;;;;;;;;2066270;28;20512;-65
2021/01/12 01:38:45;;;;;;;33.90;23.60;;;;;;;;;;2074604;28;20188;-63
2021/01/12 01:39:45;;;;;;;35.40;22.40;;;;;;;;;;2075327;28;20251;-63
2021/01/12 01:40:45;;;;;;;35.17;25.07;;;;;;;;;;2075152;28;20272;-64
2021/01/12 01:41:45;;;;;;;38.67;26.73;;;;;;;;;;2082949;28;20253;-63
2021/01/12 01:42:46;;;;;;;36.47;26.17;;;;;;;;;;2085495;28;20195;-64
2021/01/12 01:43:46;;;;;;;28.27;17.83;;;;;;;;;;2087810;28;20194;-64
2021/01/12 01:44:46;;;;;;;36.33;25.77;;;;;;;;;;2091659;28;20175;-65
2021/01/12 01:45:46;;;;;;;31.53;20.93;;;;;;;;;;2091133;28;20699;-64
2021/01/12 01:46:48;;;;;;;32.97;23.97;;;;;;;;;;2091835;28;20164;-64
2021/01/12 01:47:48;;;;;;;25.20;16.03;;;;;;;;;;2078207;28;20555;-61
2021/01/12 01:48:48;;;;;;;31.63;22.53;;;;;;;;;;2067191;28;20188;-62
2021/01/12 01:49:49;;;;;;;28.93;22.67;;;;;;;;;;2073476;28;20219;-62
2021/01/12 01:50:49;;;;;;;33.87;23.93;;;;;;;;;;2066213;28;20193;-67
2021/01/12 01:51:51;;;;;;;29.83;21.13;;;;;;;;;;2075380;28;20176;-65
2021/01/12 01:52:52;;;;;;;35.10;23.00;;;;;;;;;;2082911;28;20204;-63
2021/01/12 01:53:53;;;;;;;23.43;16.73;;;;;;;;;;2082551;28;20223;-61
2021/01/12 01:54:54;;;;;;;21.63;16.40;;;;;;;;;;2090539;28;20176;-66
2021/01/12 01:55:58;;;;;;;32.10;22.23;;;;;;;;;;2089616;28;20214;-63
2021/01/12 01:56:59;;;;;;;30.63;23.37;;;;;;;;;;2083210;28;20179;-63
2021/01/12 01:57:59;;;;;;;29.93;20.27;;;;;;;;;;2073521;28;20272;-64
2021/01/12 01:59:00;;;;;;;31.83;21.30;;;;;;;;;;2077026;28;20172;-62
2021/01/12 02:00:02;;;;;;;31.37;22.40;;;;;;;;;;2077521;28;20255;-63
2021/01/12 02:01:06;;;;;;;31.10;22.23;;;;;;;;;;2071514;28;20240;-65
2021/01/12 02:02:06;;;;;;;35.60;24.73;;;;;;;;;;2070853;28;20677;-64
2021/01/12 02:03:08;;;;;;;36.47;25.87;;;;;;;;;;2079122;28;20200;-63
2021/01/12 02:04:29;;;;;;;31.93;23.40;;;;;;;;;;2078974;28;20211;-63
2021/01/12 02:05:31;;;;;;;31.23;22.03;;;;;;;;;;2088049;28;20387;-59
2021/01/12 02:06:34;;;;;;;32.87;24.40;;;;;;;;;;2090780;28;20191;-63
2021/01/12 02:07:34;;;;;;;26.80;19.13;;;;;;;;;;2083613;28;20653;-66
2021/01/12 02:08:37;;;;;;;33.60;23.10;;;;;;;;;;2090135;28;20172;-63
2021/01/12 02:09:52;;;;;;;34.47;25.70;;;;;;;;;;2091034;28;20207;-67
2021/01/12 02:10:55;;;;;;;36.73;24.37;;;;;;;;;;2085105;28;20179;-63
2021/01/12 02:11:59;;;;;;;32.77;21.70;;;;;;;;;;2080591;28;20183;-64
2021/01/12 02:13:00;;;;;;;34.63;25.20;;;;;;;;;;2075203;28;20179;-63
2021/01/12 02:14:04;;;;;;;34.73;23.70;;;;;;;;;;2087822;28;20249;-66
2021/01/12 02:15:05;;;;;;;31.60;20.60;;;;;;;;;;2084739;28;20175;-65
2021/01/12 02:16:05;;;;;;;25.67;17.73;;;;;;;;;;2089611;28;20291;-64
2021/01/12 02:17:06;;;;;;;23.93;17.33;;;;;;;;;;2082187;28;20188;-62
2021/01/12 02:18:08;;;;;;;31.73;23.13;;;;;;;;;;2074350;28;20215;-60
2021/01/12 02:19:10;;;;;;;34.27;23.87;;;;;;;;;;2077402;28;20184;-66
2021/01/12 02:20:12;;;;;;;32.60;23.83;;;;;;;;;;2078146;28;20205;-61
2021/01/12 02:21:12;;;;;;;29.47;21.70;;;;;;;;;;2077514;28;20202;-62
2021/01/12 02:22:20;;;;;;;28.33;20.27;;;;;;;;;;2081057;28;20254;-63
2021/01/12 02:23:27;;;;;;;33.30;22.73;;;;;;;;;;2084898;28;20168;-56
2021/01/12 02:24:27;;;;;;;25.07;17.77;;;;;;;;;;2090203;28;20179;-64
2021/01/12 02:25:28;;;;;;;29.37;19.23;;;;;;;;;;2091582;28;20167;-61
2021/01/12 02:26:28;;;;;;;29.07;20.80;;;;;;;;;;2089621;28;20550;-62
2021/01/12 02:27:28;;;;;;;28.40;19.33;;;;;;;;;;2085528;28;20183;-62
2021/01/12 02:28:28;;;;;;;29.77;21.43;;;;;;;;;;2089873;28;20174;-62
2021/01/12 02:29:29;;;;;;;30.43;22.70;;;;;;;;;;2087155;28;20271;-61
2021/01/12 02:30:29;;;;;;;30.07;21.73;;;;;;;;;;2081371;28;20202;-63
2021/01/12 02:31:30;;;;;;;30.30;19.90;;;;;;;;;;2081025;28;20251;-66
2021/01/12 02:32:30;;;;;;;34.13;21.90;;;;;;;;;;2074454;28;20550;-66
2021/01/12 02:33:31;;;;;;;32.70;22.07;;;;;;;;;;2074334;28;20256;-64
2021/01/12 02:34:32;;;;;;;29.10;21.87;;;;;;;;;;2082520;28;20170;-66
2021/01/12 02:35:34;;;;;;;29.97;20.90;;;;;;;;;;2077816;28;20219;-66
2021/01/12 02:36:36;;;;;;;29.30;21.23;;;;;;;;;;2081899;28;20194;-62
2021/01/12 02:37:36;;;;;;;18.17;12.63;;;;;;;;;;2066982;28;20193;-62
2021/01/12 02:38:37;;;;;;;31.40;20.87;;;;;;;;;;2082903;28;20527;-62
2021/01/12 02:39:37;;;;;;;27.33;19.07;;;;;;;;;;2079036;28;20256;-62
2021/01/12 02:40:37;;;;;;;25.27;19.40;;;;;;;;;;2066959;28;20174;-62
2021/01/12 02:41:38;;;;;;;29.73;20.50;;;;;;;;;;2077568;28;20192;-63
2021/01/12 02:42:41;;;;;;;28.77;20.87;;;;;;;;;;2083431;28;20171;-63
2021/01/12 02:43:41;;;;;;;28.37;19.77;;;;;;;;;;2072512;28;20191;-61
2021/01/12 02:44:42;;;;;;;25.90;19.97;;;;;;;;;;2067335;28;20185;-64
2021/01/12 02:45:42;;;;;;;33.30;22.00;;;;;;;;;;2071505;28;20267;-66
2021/01/12 02:46:42;;;;;;;24.77;18.70;;;;;;;;;;2066791;28;20187;-64
2021/01/12 02:47:43;;;;;;;26.20;20.37;;;;;;;;;;2069821;28;20181;-63
2021/01/12 02:48:43;;;;;;;28.40;19.53;;;;;;;;;;2078318;28;20206;-66
2021/01/12 02:49:43;;;;;;;26.20;21.50;;;;;;;;;;2089087;28;20729;-63
2021/01/12 02:50:43;;;;;;;28.50;20.97;;;;;;;;;;2090903;28;20270;-62
2021/01/12 02:51:44;;;;;;;26.67;19.57;;;;;;;;;;2091389;28;20207;-63
2021/01/12 02:52:44;;;;;;;26.67;19.70;;;;;;;;;;2083038;28;20217;-63
2021/01/12 02:53:45;;;;;;;27.43;20.50;;;;;;;;;;2075299;28;20661;-65
2021/01/12 02:54:45;;;;;;;29.10;21.80;;;;;;;;;;2091122;28;20180;-63
2021/01/12 02:55:45;;;;;;;23.33;17.23;;;;;;;;;;2084018;28;20175;-65
2021/01/12 02:56:45;;;;;;;22.57;15.73;;;;;;;;;;2074433;28;20217;-56
2021/01/12 02:57:46;;;;;;;26.17;19.60;;;;;;;;;;2067062;28;20546;-62
2021/01/12 02:58:46;;;;;;;16.60;12.40;;;;;;;;;;2083274;28;20222;-60
2021/01/12 02:59:46;;;;;;;24.73;19.87;;;;;;;;;;2082237;28;20900;-63
2021/01/12 03:00:46;;;;;;;23.70;16.70;;;;;;;;;;2072017;28;20170;-62
2021/01/12 03:01:47;;;;;;;22.33;15.97;;;;;;;;;;2081970;28;20172;-64
2021/01/12 03:02:47;;;;;;;21.50;16.43;;;;;;;;;;2084101;28;20601;-63
2021/01/12 03:03:47;;;;;;;22.07;15.73;;;;;;;;;;2082460;28;20187;-65
2021/01/12 03:04:47;;;;;;;26.63;19.67;;;;;;;;;;2079070;28;20192;-66
2021/01/12 03:05:48;;;;;;;26.03;19.30;;;;;;;;;;2090781;28;20172;-65
2021/01/12 03:06:48;;;;;;;27.57;19.80;;;;;;;;;;2083710;28;20169;-61
2021/01/12 03:07:48;;;;;;;17.70;13.00;;;;;;;;;;2090067;28;20176;-62
2021/01/12 03:08:49;;;;;;;26.97;19.50;;;;;;;;;;2084023;28;20805;-63
2021/01/12 03:09:49;;;;;;;24.20;16.73;;;;;;;;;;2089532;28;20184;-60
2021/01/12 03:10:49;;;;;;;22.43;16.37;;;;;;;;;;2077002;28;20184;-55
2021/01/12 03:11:51;;;;;;;19.63;15.47;;;;;;;;;;2073396;28;20611;-64
2021/01/12 03:12:51;;;;;;;20.77;16.70;;;;;;;;;;2076643;28;20172;-63
2021/01/12 03:13:51;;;;;;;22.07;16.50;;;;;;;;;;2090693;28;20184;-61
2021/01/12 03:14:52;;;;;;;23.10;17.17;;;;;;;;;;2089912;28;20582;-64
2021/01/12 03:15:53;;;;;;;19.03;14.23;;;;;;;;;;2080381;28;20188;-62
2021/01/12 03:16:53;;;;;;;21.50;16.43;;;;;;;;;;2079557;28;20181;-63
2021/01/12 03:17:53;;;;;;;20.57;14.83;;;;;;;;;;2073367;28;20188;-63
2021/01/12 03:18:53;;;;;;;22.70;17.07;;;;;;;;;;2073939;28;20219;-64
2021/01/12 03:19:54;;;;;;;24.37;16.20;;;;;;;;;;2081513;28;20242;-64
2021/01/12 03:20:55;;;;;;;23.17;16.80;;;;;;;;;;2088923;28;20180;-60
2021/01/12 03:21:55;;;;;;;20.17;14.87;;;;;;;;;;2067548;28;20181;-65
2021/01/12 03:22:56;;;;;;;20.73;15.53;;;;;;;;;;2072170;28;20182;-64
2021/01/12 03:23:56;;;;;;;23.97;16.33;;;;;;;;;;2088510;28;20584;-63
2021/01/12 03:24:56;;;;;;;20.20;16.00;;;;;;;;;;2090094;28;20188;-62
2021/01/12 03:25:56;;;;;;;20.63;15.47;;;;;;;;;;2090229;28;20632;-62
2021/01/12 03:26:57;;;;;;;20.47;13.53;;;;;;;;;;2090503;28;20586;-63
2021/01/12 03:27:57;;;;;;;18.93;14.37;;;;;;;;;;2090025;28;20180;-61
2021/01/12 03:28:57;;;;;;;20.60;15.43;;;;;;;;;;2090447;28;20203;-62
2021/01/12 03:29:57;;;;;;;19.73;16.20;;;;;;;;;;2088611;28;20195;-63
2021/01/12 03:30:58;;;;;;;14.33;10.77;;;;;;;;;;2087805;28;20238;-62
2021/01/12 03:31:59;;;;;;;18.73;14.67;;;;;;;;;;2077137;28;20173;-65
2021/01/12 03:32:59;;;;;;;19.87;15.60;;;;;;;;;;2082774;28;20180;-60
2021/01/12 03:33:59;;;;;;;14.77;11.27;;;;;;;;;;2091789;28;20174;-66
2021/01/12 03:34:59;;;;;;;18.83;15.47;;;;;;;;;;2088222;28;20172;-62
2021/01/12 03:36:00;;;;;;;18.87;13.07;;;;;;;;;;2082761;28;20323;-63
2021/01/12 03:37:00;;;;;;;17.83;14.43;;;;;;;;;;2071871;28;20172;-63
2021/01/12 03:38:00;;;;;;;17.17;12.13;;;;;;;;;;2075784;28;20195;-60
2021/01/12 03:39:01;;;;;;;13.93;11.50;;;;;;;;;;2085680;28;20179;-62
2021/01/12 03:40:02;;;;;;;16.93;13.43;;;;;;;;;;2086954;28;20337;-63
2021/01/12 03:41:02;;;;;;;17.80;14.17;;;;;;;;;;2072686;28;20187;-60
2021/01/12 03:42:02;;;;;;;17.23;14.37;;;;;;;;;;2074015;28;20561;-60
2021/01/12 03:43:03;;;;;;;18.33;14.03;;;;;;;;;;2082103;28;20188;-62
2021/01/12 03:44:03;;;;;;;14.90;12.23;;;;;;;;;;2081840;28;20184;-61
2021/01/12 03:45:04;;;;;;;16.33;13.23;;;;;;;;;;2087757;28;20272;-63
2021/01/12 03:46:04;;;;;;;18.33;13.93;;;;;;;;;;2084003;28;20210;-62
2021/01/12 03:47:04;;;;;;;16.47;13.77;;;;;;;;;;2073779;28;20589;-61
2021/01/12 03:48:05;;;;;;;16.80;13.43;;;;;;;;;;2068009;28;20172;-61
2021/01/12 03:49:05;;;;;;;17.90;13.60;;;;;;;;;;2078619;28;20169;-61
2021/01/12 03:50:07;;;;;;;17.37;12.80;;;;;;;;;;2084352;28;20537;-61
2021/01/12 03:51:07;;;;;;;17.07;12.17;;;;;;;;;;2086252;28;20173;-62
2021/01/12 03:52:07;;;;;;;16.30;12.53;;;;;;;;;;2086563;28;20231;-60
2021/01/12 03:53:07;;;;;;;17.43;14.10;;;;;;;;;;2090485;28;20183;-60
2021/01/12 03:54:08;;;;;;;16.03;13.17;;;;;;;;;;2091380;28;20259;-63
2021/01/12 03:55:08;;;;;;;16.07;12.53;;;;;;;;;;2090656;28;20179;-62
2021/01/12 03:56:09;;;;;;;16.60;13.17;;;;;;;;;;2087389;28;20188;-65
2021/01/12 03:57:09;;;;;;;15.30;12.17;;;;;;;;;;2078268;28;20180;-64
2021/01/12 03:58:09;;;;;;;15.63;13.20;;;;;;;;;;2078994;28;20184;-60
2021/01/12 03:59:09;;;;;;;16.00;13.03;;;;;;;;;;2071662;28;20173;-62
2021/01/12 04:00:10;;;;;;;17.43;13.57;;;;;;;;;;2070528;28;20201;-62
2021/01/12 04:01:13;;;;;;;14.23;11.47;;;;;;;;;;2090026;28;20183;-61
2021/01/12 04:02:14;;;;;;;17.87;13.53;;;;;;;;;;2091344;28;20196;-62
2021/01/12 04:03:14;;;;;;;14.80;11.63;;;;;;;;;;2082976;28;20327;-62
2021/01/12 04:04:14;;;;;;;16.50;12.47;;;;;;;;;;2079327;28;20673;-61
2021/01/12 04:05:15;;;;;;;14.10;12.60;;;;;;;;;;2082397;28;20210;-61
2021/01/12 04:06:15;;;;;;;17.60;13.10;;;;;;;;;;2070901;28;20760;-57
2021/01/12 04:07:15;;;;;;;13.77;11.70;;;;;;;;;;2075641;28;20185;-63
2021/01/12 04:08:16;;;;;;;15.50;12.73;;;;;;;;;;2088216;28;20187;-60
2021/01/12 04:09:16;;;;;;;12.70;9.47;;;;;;;;;;2088659;28;20551;-59
2021/01/12 04:10:16;;;;;;;15.47;12.20;;;;;;;;;;2087969;28;20230;-60
2021/01/12 04:11:18;;;;;;;15.00;12.10;;;;;;;;;;2079513;28;20176;-60
2021/01/12 04:12:18;;;;;;;13.00;10.70;;;;;;;;;;2080587;28;20184;-63
2021/01/12 04:13:19;;;;;;;12.43;10.03;;;;;;;;;;2086925;28;20164;-63
2021/01/12 04:14:19;;;;;;;14.43;11.27;;;;;;;;;;2082408;28;20271;-64
2021/01/12 04:15:19;;;;;;;12.73;10.67;;;;;;;;;;2085897;28;20164;-62
2021/01/12 04:16:22;;;;;;;13.63;11.20;;;;;;;;;;2088972;28;20218;-63
2021/01/12 04:17:23;;;;;;;13.23;10.77;;;;;;;;;;2084636;28;20180;-62
2021/01/12 04:18:23;;;;;;;11.97;9.43;;;;;;;;;;2081837;28;20187;-63
2021/01/12 04:19:23;;;;;;;13.27;9.13;;;;;;;;;;2079336;28;20244;-64
2021/01/12 04:20:24;;;;;;;11.50;8.90;;;;;;;;;;2073695;28;20260;-62
2021/01/12 04:21:24;;;;;;;11.80;9.87;;;;;;;;;;2075464;28;20659;-61
2021/01/12 04:22:24;;;;;;;14.57;10.50;;;;;;;;;;2071473;28;20270;-63
2021/01/12 04:23:25;;;;;;;12.07;9.20;;;;;;;;;;2074820;28;20173;-65
2021/01/12 04:24:25;;;;;;;14.03;11.00;;;;;;;;;;2086564;28;20211;-63
2021/01/12 04:25:25;;;;;;;12.50;11.00;;;;;;;;;;2089260;28;20262;-62
2021/01/12 04:26:25;;;;;;;12.67;9.73;;;;;;;;;;2091071;28;20195;-63
2021/01/12 04:27:26;;;;;;;14.80;11.20;;;;;;;;;;2083133;28;20303;-62
2021/01/12 04:28:26;;;;;;;14.10;10.63;;;;;;;;;;2082796;28;20172;-63
2021/01/12 04:29:26;;;;;;;12.13;10.20;;;;;;;;;;2081400;28;20735;-63
2021/01/12 04:30:26;;;;;;;14.67;11.60;;;;;;;;;;2078209;28;20252;-61
2021/01/12 04:31:27;;;;;;;12.87;10.03;;;;;;;;;;2091812;28;20575;-64
2021/01/12 04:32:27;;;;;;;8.60;6.47;;;;;;;;;;2089969;28;20627;-61
2021/01/12 04:33:27;;;;;;;11.40;9.70;;;;;;;;;;2075220;28;20176;-64
2021/01/12 04:34:27;;;;;;;11.50;9.70;;;;;;;;;;2082133;28;20591;-65
2021/01/12 04:35:28;;;;;;;11.53;9.53;;;;;;;;;;2084730;28;20183;-54
2021/01/12 04:36:28;;;;;;;10.27;8.83;;;;;;;;;;2090348;28;20171;-63
2021/01/12 04:37:29;;;;;;;12.70;10.37;;;;;;;;;;2085022;28;20176;-62
2021/01/12 04:38:29;;;;;;;12.40;9.80;;;;;;;;;;2076162;28;20188;-58
2021/01/12 04:39:29;;;;;;;9.07;7.43;;;;;;;;;;2081053;28;20236;-62
2021/01/12 04:40:30;;;;;;;11.60;8.90;;;;;;;;;;2078247;28;20204;-65
2021/01/12 04:41:30;;;;;;;11.60;9.80;;;;;;;;;;2083357;28;20266;-62
2021/01/12 04:42:33;;;;;;;10.03;8.93;;;;;;;;;;2091329;28;20879;-65
2021/01/12 04:43:33;;;;;;;11.77;10.00;;;;;;;;;;2091691;28;20270;-64
2021/01/12 04:44:34;;;;;;;12.00;9.87;;;;;;;;;;2089101;28;20183;-64
2021/01/12 04:45:34;;;;;;;12.33;9.90;;;;;;;;;;2084041;28;20208;-63
2021/01/12 04:46:34;;;;;;;10.43;8.30;;;;;;;;;;2083444;28;20211;-62
2021/01/12 04:47:34;;;;;;;10.97;8.90;;;;;;;;;;2084124;28;20168;-62
2021/01/12 04:48:35;;;;;;;10.67;8.53;;;;;;;;;;2088851;28;20207;-62
2021/01/12 04:49:35;;;;;;;11.77;9.70;;;;;;;;;;2083742;28;20223;-63
2021/01/12 04:50:35;;;;;;;10.93;8.50;;;;;;;;;;2074925;28;20236;-62
2021/01/12 04:51:35;;;;;;;13.03;9.60;;;;;;;;;;2068437;28;20252;-63
2021/01/12 04:52:43;;;;;;;11.20;9.47;;;;;;;;;;2082578;28;20180;-62
2021/01/12 04:53:47;;;;;;;12.53;8.90;;;;;;;;;;2084678;28;20168;-61
2021/01/12 04:54:50;;;;;;;9.87;8.50;;;;;;;;;;2083033;28;20176;-62
2021/01/12 04:55:54;;;;;;;10.30;9.13;;;;;;;;;;2069654;28;20681;-64
2021/01/12 04:56:55;;;;;;;12.93;9.63;;;;;;;;;;2068007;28;20237;-59
2021/01/12 04:57:55;;;;;;;10.93;9.33;;;;;;;;;;2076995;28;20177;-62
2021/01/12 04:58:55;;;;;;;12.47;8.80;;;;;;;;;;2090337;28;20211;-64
2021/01/12 04:59:56;;;;;;;10.43;9.13;;;;;;;;;;2088765;28;20199;-63
2021/01/12 05:00:57;;;;;;;11.47;7.87;;;;;;;;;;2089503;28;20199;-65
2021/01/12 05:01:57;;;;;;;9.30;7.40;;;;;;;;;;2085419;28;20203;-64
2021/01/12 05:03:01;;;;;;;11.97;10.40;;;;;;;;;;2082833;28;20202;-62
2021/01/12 05:04:04;;;;;;;9.37;8.33;;;;;;;;;;2083278;28;20164;-64
2021/01/12 05:05:06;;;;;;;10.87;8.37;;;;;;;;;;2092158;28;20567;-63
2021/01/12 05:06:06;;;;;;;11.40;9.37;;;;;;;;;;2083132;28;20250;-63
2021/01/12 05:07:07;;;;;;;8.87;7.93;;;;;;;;;;2082351;28;20164;-65
2021/01/12 05:08:09;;;;;;;11.60;9.27;;;;;;;;;;2081878;28;20176;-60
2021/01/12 05:09:09;;;;;;;9.17;8.00;;;;;;;;;;2082678;28;20168;-65
2021/01/12 05:10:10;;;;;;;10.27;8.27;;;;;;;;;;2081940;28;20192;-63
2021/01/12 05:11:11;;;;;;;11.37;8.97;;;;;;;;;;2082316;28;20283;-61
2021/01/12 05:12:12;;;;;;;9.10;7.27;;;;;;;;;;2082727;28;20676;-65
2021/01/12 05:13:12;;;;;;;9.23;7.97;;;;;;;;;;2082678;28;20176;-63
2021/01/12 05:14:13;;;;;;;10.50;9.40;;;;;;;;;;2074607;28;20204;-64
2021/01/12 05:15:14;;;;;;;11.10;8.53;;;;;;;;;;2075456;28;20756;-63
2021/01/12 05:16:14;;;;;;;11.43;8.67;;;;;;;;;;2083574;28;20188;-62
2021/01/12 05:17:19;;;;;;;9.70;8.23;;;;;;;;;;2074866;28;20279;-63
2021/01/12 05:18:19;;;;;;;10.47;9.03;;;;;;;;;;2084086;28;20184;-63
2021/01/12 05:19:21;;;;;;;10.90;8.27;;;;;;;;;;2083498;28;20223;-65
2021/01/12 05:20:24;;;;;;;8.87;7.63;;;;;;;;;;2082195;28;20176;-63
2021/01/12 05:21:25;;;;;;;9.93;7.03;;;;;;;;;;2075244;28;20195;-65
2021/01/12 05:22:26;;;;;;;9.10;7.37;;;;;;;;;;2081519;28;20215;-63
2021/01/12 05:23:29;;;;;;;9.87;8.17;;;;;;;;;;2077380;28;20557;-65
2021/01/12 05:24:29;;;;;;;9.77;8.13;;;;;;;;;;2082619;28;21047;-62
2021/01/12 05:25:33;;;;;;;11.17;8.40;;;;;;;;;;2076573;28;20177;-63
2021/01/12 05:26:34;;;;;;;7.83;6.77;;;;;;;;;;2083916;28;20199;-62
2021/01/12 05:27:34;;;;;;;8.90;8.00;;;;;;;;;;2077950;28;20191;-64
2021/01/12 05:28:35;;;;;;;9.13;7.87;;;;;;;;;;2076203;28;20177;-63
2021/01/12 05:29:36;;;;;;;9.73;7.97;;;;;;;;;;2085903;28;20235;-65
2021/01/12 05:30:36;;;;;;;9.43;7.43;;;;;;;;;;2091164;28;20203;-64
2021/01/12 05:31:37;;;;;;;10.37;8.33;;;;;;;;;;2084439;28;20172;-66
2021/01/12 05:32:39;;;;;;;9.30;8.23;;;;;;;;;;2083330;28;20178;-63
2021/01/12 05:33:43;;;;;;;10.33;7.70;;;;;;;;;;2075381;28;20173;-64
2021/01/12 05:34:43;;;;;;;8.70;6.70;;;;;;;;;;2079115;28;20184;-66
2021/01/12 05:35:44;;;;;;;8.40;7.23;;;;;;;;;;2083145;28;20260;-62
2021/01/12 05:36:48;;;;;;;8.70;7.80;;;;;;;;;;2087858;28;20188;-65
2021/01/12 05:37:49;;;;;;;10.40;7.33;;;;;;;;;;2091179;28;20202;-63
2021/01/12 05:38:50;;;;;;;9.87;8.20;;;;;;;;;;2088530;28;20182;-65
2021/01/12 05:39:51;;;;;;;8.27;7.10;;;;;;;;;;2089435;28;20199;-65
2021/01/12 05:40:53;;;;;;;9.50;7.20;;;;;;;;;;2091830;28;20172;-63
2021/01/12 05:41:57;;;;;;;8.87;6.77;;;;;;;;;;2080225;28;20215;-65
2021/01/12 05:43:04;;;;;;;10.30;7.40;;;;;;;;;;2079583;28;20199;-65
2021/01/12 05:44:11;;;;;;;7.10;6.40;;;;;;;;;;2078563;28;20172;-64
2021/01/12 05:45:11;;;;;;;8.70;7.80;;;;;;;;;;2079927;28;20224;-65
2021/01/12 05:46:13;;;;;;;9.43;7.60;;;;;;;;;;2078580;28;20257;-62
2021/01/12 05:47:14;;;;;;;8.00;6.53;;;;;;;;;;2078140;28;20165;-63
2021/01/12 05:48:16;;;;;;;8.57;6.63;;;;;;;;;;2078820;28;20664;-62
2021/01/12 05:49:17;;;;;;;9.00;6.97;;;;;;;;;;2073939;28;20220;-65
2021/01/12 05:50:21;;;;;;;9.07;7.90;;;;;;;;;;2078052;28;20192;-64
2021/01/12 05:51:25;;;;;;;7.43;6.40;;;;;;;;;;2060828;28;20170;-65
2021/01/12 05:52:26;;;;;;;7.57;6.67;;;;;;;;;;2078757;28;20172;-64
2021/01/12 05:53:29;;;;;;;7.73;6.67;;;;;;;;;;2083938;28;20520;-63
2021/01/12 05:54:30;;;;;;;7.77;6.77;;;;;;;;;;2081900;28;20179;-64
2021/01/12 05:55:34;;;;;;;8.33;7.07;;;;;;;;;;2082802;28;20195;-63
2021/01/12 05:56:36;;;;;;;8.77;7.27;;;;;;;;;;2074513;28;20223;-66
2021/01/12 05:57:38;;;;;;;7.53;6.83;;;;;;;;;;2066591;28;20181;-63